sensor_id;sensor_type;location;lat;lon;timestamp;temperature;humidity
15789;DHT22;59075;50.670;6.474;2022-09-01T05:00:04;23.10;99.90
15789;DHT22;59075;50.670;6.474;2022-09-01T05:02:47;23.10;99.90
15789;DHT22;59075;50.670;6.474;2022-09-01T05:05:14;23.10;99.90
15789;DHT22;59075;50.670;6.474;2022-09-01T05:07:40;23.10;99.90
15789;DHT22;59075;50.670;6.474;2022-09-01T05:10:08;23.10;99.90
15789;DHT22;59075;50.670;6.474;2022-09-01T05:12:35;23.10;99.90
15789;DHT22;59075;50.670;6.474;2022-09-01T05:15:03;23.10;99.90
15789;DHT22;59075;50.670;6.474;2022-09-01T05:22:30;23.10;99.90
15789;DHT22;59075;50.670;6.474;2022-09-01T05:24:57;23.10;99.90
15789;DHT22;59075;50.670;6.474;2022-09-01T05:27:27;23.10;99.90
15789;DHT22;59075;50.670;6.474;2022-09-01T05:29:55;23.10;99.90
15789;DHT22;59075;50.670;6.474;2022-09-01T05:32:25;23.10;99.90
15789;DHT22;59075;50.670;6.474;2022-09-01T05:34:53;23.10;99.90
15789;DHT22;59075;50.670;6.474;2022-09-01T05:37:19;23.10;99.90
15789;DHT22;59075;50.670;6.474;2022-09-01T05:39:46;23.10;99.90
15789;DHT22;59075;50.670;6.474;2022-09-01T05:42:13;23.10;99.90
15789;DHT22;59075;50.670;6.474;2022-09-01T05:44:39;23.10;99.90
15789;DHT22;59075;50.670;6.474;2022-09-01T05:47:09;23.10;99.90
15789;DHT22;59075;50.670;6.474;2022-09-01T05:49:38;23.10;99.90
15789;DHT22;59075;50.670;6.474;2022-09-01T05:52:05;23.10;99.90
15789;DHT22;59075;50.670;6.474;2022-09-01T05:54:33;23.10;99.90
15789;DHT22;59075;50.670;6.474;2022-09-01T05:57:00;23.10;99.90
15789;DHT22;59075;50.670;6.474;2022-09-01T05:59:28;23.10;99.90
15789;DHT22;59075;50.670;6.474;2022-09-01T06:01:56;23.10;99.90
15789;DHT22;59075;50.670;6.474;2022-09-01T06:04:23;23.10;99.90
15789;DHT22;59075;50.670;6.474;2022-09-01T06:06:53;23.10;99.90
15789;DHT22;59075;50.670;6.474;2022-09-01T06:09:21;23.10;99.90
15789;DHT22;59075;50.670;6.474;2022-09-01T06:11:49;23.10;99.90
15789;DHT22;59075;50.670;6.474;2022-09-01T06:14:16;23.20;99.90
15789;DHT22;59075;50.670;6.474;2022-09-01T06:19:12;23.20;99.90
15789;DHT22;59075;50.670;6.474;2022-09-01T06:21:39;23.10;99.90
15789;DHT22;59075;50.670;6.474;2022-09-01T06:24:07;23.10;99.90
15789;DHT22;59075;50.670;6.474;2022-09-01T06:26:36;23.10;99.90
15789;DHT22;59075;50.670;6.474;2022-09-01T06:29:06;23.10;99.90
15789;DHT22;59075;50.670;6.474;2022-09-01T06:31:35;23.10;99.90
15789;DHT22;59075;50.670;6.474;2022-09-01T06:34:05;23.10;99.90
15789;DHT22;59075;50.670;6.474;2022-09-01T06:36:35;23.10;99.90
15789;DHT22;59075;50.670;6.474;2022-09-01T06:39:05;23.10;99.90
15789;DHT22;59075;50.670;6.474;2022-09-01T06:41:34;23.10;99.90
15789;DHT22;59075;50.670;6.474;2022-09-01T06:44:03;23.10;99.90
15789;DHT22;59075;50.670;6.474;2022-09-01T06:46:29;23.10;99.90
15789;DHT22;59075;50.670;6.474;2022-09-01T06:48:56;23.10;99.90
15789;DHT22;59075;50.670;6.474;2022-09-01T06:51:24;23.10;99.90
15789;DHT22;59075;50.670;6.474;2022-09-01T06:53:53;23.10;99.90
15789;DHT22;59075;50.670;6.474;2022-09-01T06:56:24;23.10;99.90
15789;DHT22;59075;50.670;6.474;2022-09-01T06:58:54;23.10;99.90
15789;DHT22;59075;50.670;6.474;2022-09-01T07:01:21;23.10;99.90
15789;DHT22;59075;50.670;6.474;2022-09-01T07:03:52;23.10;99.90
15789;DHT22;59075;50.670;6.474;2022-09-01T07:06:21;23.10;99.90
15789;DHT22;59075;50.670;6.474;2022-09-01T07:08:49;23.10;99.90
15789;DHT22;59075;50.670;6.474;2022-09-01T07:11:19;23.10;99.90
15789;DHT22;59075;50.670;6.474;2022-09-01T07:13:55;23.10;99.90
15789;DHT22;59075;50.670;6.474;2022-09-01T07:16:23;23.10;99.90
15789;DHT22;59075;50.670;6.474;2022-09-01T07:18:53;23.10;99.90
15789;DHT22;59075;50.670;6.474;2022-09-01T07:21:21;23.10;99.90
15789;DHT22;59075;50.670;6.474;2022-09-01T07:26:15;23.10;99.90
15789;DHT22;59075;50.670;6.474;2022-09-01T07:28:44;23.10;99.90
15789;DHT22;59075;50.670;6.474;2022-09-01T07:31:17;23.10;99.90
15789;DHT22;59075;50.670;6.474;2022-09-01T07:33:46;23.10;99.90
15789;DHT22;59075;50.670;6.474;2022-09-01T07:36:13;23.10;99.90
15789;DHT22;59075;50.670;6.474;2022-09-01T07:38:40;23.10;99.90
15789;DHT22;59075;50.670;6.474;2022-09-01T07:41:08;23.10;99.90
15789;DHT22;59075;50.670;6.474;2022-09-01T07:43:38;23.10;99.90
15789;DHT22;59075;50.670;6.474;2022-09-01T07:46:09;23.10;99.90
15789;DHT22;59075;50.670;6.474;2022-09-01T07:48:38;23.20;99.90
15789;DHT22;59075;50.670;6.474;2022-09-01T07:51:05;23.10;99.90
15789;DHT22;59075;50.670;6.474;2022-09-01T07:53:33;23.20;99.90
15789;DHT22;59075;50.670;6.474;2022-09-01T07:56:05;23.20;99.90
15789;DHT22;59075;50.670;6.474;2022-09-01T07:58:35;23.20;99.90
15789;DHT22;59075;50.670;6.474;2022-09-01T08:01:06;23.20;99.90
15789;DHT22;59075;50.670;6.474;2022-09-01T08:03:33;23.20;99.90
15789;DHT22;59075;50.670;6.474;2022-09-01T08:06:04;23.20;99.90
15789;DHT22;59075;50.670;6.474;2022-09-01T08:08:31;23.20;99.90
15789;DHT22;59075;50.670;6.474;2022-09-01T08:10:58;23.20;99.90
15789;DHT22;59075;50.670;6.474;2022-09-01T08:13:26;23.20;99.90
15789;DHT22;59075;50.670;6.474;2022-09-01T08:18:20;23.20;99.90
15789;DHT22;59075;50.670;6.474;2022-09-01T08:23:18;23.30;99.90
15789;DHT22;59075;50.670;6.474;2022-09-01T08:25:45;23.30;99.90
15789;DHT22;59075;50.670;6.474;2022-09-01T08:28:13;23.30;99.90
15789;DHT22;59075;50.670;6.474;2022-09-01T08:30:42;23.30;99.90
15789;DHT22;59075;50.670;6.474;2022-09-01T08:33:09;23.30;99.90
15789;DHT22;59075;50.670;6.474;2022-09-01T08:35:37;23.30;99.90
15789;DHT22;59075;50.670;6.474;2022-09-01T08:40:32;23.30;99.90
15789;DHT22;59075;50.670;6.474;2022-09-01T08:43:07;23.30;99.90
15789;DHT22;59075;50.670;6.474;2022-09-01T08:45:43;23.40;99.90
15789;DHT22;59075;50.670;6.474;2022-09-01T08:48:14;23.40;99.90
15789;DHT22;59075;50.670;6.474;2022-09-01T08:50:43;23.40;99.90
15789;DHT22;59075;50.670;6.474;2022-09-01T08:53:18;23.40;99.90
15789;DHT22;59075;50.670;6.474;2022-09-01T08:55:52;23.40;99.90
15789;DHT22;59075;50.670;6.474;2022-09-01T08:58:20;23.40;99.90
15789;DHT22;59075;50.670;6.474;2022-09-01T09:00:53;23.40;99.90
15789;DHT22;59075;50.670;6.474;2022-09-01T09:03:28;23.40;99.90
15789;DHT22;59075;50.670;6.474;2022-09-01T09:06:05;23.40;99.90
15789;DHT22;59075;50.670;6.474;2022-09-01T09:08:44;23.40;99.90
15789;DHT22;59075;50.670;6.474;2022-09-01T09:11:26;23.40;99.90
15789;DHT22;59075;50.670;6.474;2022-09-01T09:14:02;23.40;99.90
15789;DHT22;59075;50.670;6.474;2022-09-01T09:19:02;23.40;99.90
15789;DHT22;59075;50.670;6.474;2022-09-01T09:21:33;23.50;99.90
15789;DHT22;59075;50.670;6.474;2022-09-01T09:24:07;23.50;99.90
15789;DHT22;59075;50.670;6.474;2022-09-01T09:26:36;23.50;99.90
15789;DHT22;59075;50.670;6.474;2022-09-01T09:31:32;23.50;99.90
15789;DHT22;59075;50.670;6.474;2022-09-01T09:34:00;23.50;99.90
15789;DHT22;59075;50.670;6.474;2022-09-01T09:36:32;23.60;99.90
15789;DHT22;59075;50.670;6.474;2022-09-01T09:39:05;23.60;99.90
15789;DHT22;59075;50.670;6.474;2022-09-01T09:41:33;23.60;99.90
15789;DHT22;59075;50.670;6.474;2022-09-01T09:44:05;23.50;99.90
15789;DHT22;59075;50.670;6.474;2022-09-01T09:46:39;23.60;99.90
15789;DHT22;59075;50.670;6.474;2022-09-01T09:49:10;23.50;99.90
15789;DHT22;59075;50.670;6.474;2022-09-01T09:51:38;23.60;99.90
15789;DHT22;59075;50.670;6.474;2022-09-01T09:54:11;23.60;99.90
15789;DHT22;59075;50.670;6.474;2022-09-01T09:56:39;23.60;99.90
15789;DHT22;59075;50.670;6.474;2022-09-01T09:59:18;23.60;99.90
15789;DHT22;59075;50.670;6.474;2022-09-01T10:01:46;23.60;99.90
15789;DHT22;59075;50.670;6.474;2022-09-01T10:04:37;23.70;99.90
15789;DHT22;59075;50.670;6.474;2022-09-01T10:07:23;23.70;99.90
15789;DHT22;59075;50.670;6.474;2022-09-01T10:09:52;23.60;99.90
15789;DHT22;59075;50.670;6.474;2022-09-01T10:12:20;23.70;99.90
15789;DHT22;59075;50.670;6.474;2022-09-01T10:14:51;23.70;99.90
15789;DHT22;59075;50.670;6.474;2022-09-01T10:17:22;23.70;99.90
15789;DHT22;59075;50.670;6.474;2022-09-01T10:19:52;23.70;99.90
15789;DHT22;59075;50.670;6.474;2022-09-01T10:22:21;23.70;99.90
15789;DHT22;59075;50.670;6.474;2022-09-01T10:24:48;23.80;99.90
15789;DHT22;59075;50.670;6.474;2022-09-01T10:27:19;23.80;99.90
15789;DHT22;59075;50.670;6.474;2022-09-01T10:29:51;23.80;99.90
15789;DHT22;59075;50.670;6.474;2022-09-01T10:32:20;23.80;99.90
15789;DHT22;59075;50.670;6.474;2022-09-01T10:37:16;23.90;99.90
15789;DHT22;59075;50.670;6.474;2022-09-01T10:40:33;23.90;99.90
15789;DHT22;59075;50.670;6.474;2022-09-01T10:43:26;23.90;99.90
15789;DHT22;59075;50.670;6.474;2022-09-01T10:45:57;23.90;99.90
15789;DHT22;59075;50.670;6.474;2022-09-01T10:48:28;23.90;99.90
15789;DHT22;59075;50.670;6.474;2022-09-01T10:53:56;23.90;99.90
15789;DHT22;59075;50.670;6.474;2022-09-01T10:56:25;23.90;99.90
15789;DHT22;59075;50.670;6.474;2022-09-01T10:59:02;23.90;99.90
15789;DHT22;59075;50.670;6.474;2022-09-01T11:02:13;24.00;99.90
15789;DHT22;59075;50.670;6.474;2022-09-01T11:05:15;23.90;99.90
15789;DHT22;59075;50.670;6.474;2022-09-01T11:07:42;24.00;99.90
15789;DHT22;59075;50.670;6.474;2022-09-01T11:10:47;24.00;99.90
15789;DHT22;59075;50.670;6.474;2022-09-01T11:13:33;24.00;99.90
15789;DHT22;59075;50.670;6.474;2022-09-01T11:16:24;24.00;99.90
15789;DHT22;59075;50.670;6.474;2022-09-01T11:18:53;24.00;99.90
15789;DHT22;59075;50.670;6.474;2022-09-01T11:21:24;24.00;99.90
15789;DHT22;59075;50.670;6.474;2022-09-01T11:26:56;24.00;99.90
15789;DHT22;59075;50.670;6.474;2022-09-01T11:29:52;24.00;99.90
15789;DHT22;59075;50.670;6.474;2022-09-01T11:32:21;24.10;99.90
15789;DHT22;59075;50.670;6.474;2022-09-01T11:34:51;24.10;99.90
15789;DHT22;59075;50.670;6.474;2022-09-01T11:37:22;24.00;99.90
15789;DHT22;59075;50.670;6.474;2022-09-01T11:39:52;24.10;99.90
15789;DHT22;59075;50.670;6.474;2022-09-01T11:42:24;24.10;99.90
15789;DHT22;59075;50.670;6.474;2022-09-01T11:44:55;24.10;99.90
15789;DHT22;59075;50.670;6.474;2022-09-01T11:47:26;24.10;99.90
15789;DHT22;59075;50.670;6.474;2022-09-01T11:49:58;24.10;99.90
15789;DHT22;59075;50.670;6.474;2022-09-01T11:52:28;24.10;99.90
15789;DHT22;59075;50.670;6.474;2022-09-01T11:54:57;24.10;99.90
15789;DHT22;59075;50.670;6.474;2022-09-01T11:57:27;24.10;99.90
15789;DHT22;59075;50.670;6.474;2022-09-01T11:59:55;24.10;99.90
15789;DHT22;59075;50.670;6.474;2022-09-01T12:02:24;24.10;99.90
15789;DHT22;59075;50.670;6.474;2022-09-01T12:04:52;24.10;99.90
15789;DHT22;59075;50.670;6.474;2022-09-01T12:07:33;24.10;99.90
15789;DHT22;59075;50.670;6.474;2022-09-01T12:10:03;24.10;99.90
15789;DHT22;59075;50.670;6.474;2022-09-01T12:12:38;24.10;99.90
15789;DHT22;59075;50.670;6.474;2022-09-01T12:15:10;24.10;99.90
15789;DHT22;59075;50.670;6.474;2022-09-01T12:17:42;24.10;99.90
15789;DHT22;59075;50.670;6.474;2022-09-01T12:20:24;24.10;99.90
15789;DHT22;59075;50.670;6.474;2022-09-01T12:22:53;24.10;99.90
15789;DHT22;59075;50.670;6.474;2022-09-01T12:25:21;24.10;99.90
15789;DHT22;59075;50.670;6.474;2022-09-01T12:27:49;24.10;99.90
15789;DHT22;59075;50.670;6.474;2022-09-01T12:30:25;24.10;99.90
15789;DHT22;59075;50.670;6.474;2022-09-01T12:32:52;24.20;99.90
15789;DHT22;59075;50.670;6.474;2022-09-01T12:35:21;24.20;99.90
15789;DHT22;59075;50.670;6.474;2022-09-01T12:37:49;24.20;99.90
15789;DHT22;59075;50.670;6.474;2022-09-01T12:40:24;24.20;99.90
15789;DHT22;59075;50.670;6.474;2022-09-01T12:42:52;24.20;99.90
15789;DHT22;59075;50.670;6.474;2022-09-01T12:45:37;24.20;99.90
15789;DHT22;59075;50.670;6.474;2022-09-01T12:48:04;24.20;99.90
15789;DHT22;59075;50.670;6.474;2022-09-01T12:50:42;24.20;99.90
15789;DHT22;59075;50.670;6.474;2022-09-01T12:53:25;24.20;99.90
15789;DHT22;59075;50.670;6.474;2022-09-01T12:56:14;24.20;99.90
15789;DHT22;59075;50.670;6.474;2022-09-01T12:58:47;24.20;99.90
15789;DHT22;59075;50.670;6.474;2022-09-01T13:01:31;24.20;99.90
15789;DHT22;59075;50.670;6.474;2022-09-01T13:04:12;24.20;99.90
15789;DHT22;59075;50.670;6.474;2022-09-01T13:06:39;24.20;99.90
15789;DHT22;59075;50.670;6.474;2022-09-01T13:09:05;24.20;99.90
15789;DHT22;59075;50.670;6.474;2022-09-01T13:11:34;24.20;99.90
15789;DHT22;59075;50.670;6.474;2022-09-01T13:16:27;24.20;99.90
15789;DHT22;59075;50.670;6.474;2022-09-01T13:18:54;24.20;99.90
15789;DHT22;59075;50.670;6.474;2022-09-01T13:21:21;24.20;99.90
15789;DHT22;59075;50.670;6.474;2022-09-01T13:26:16;24.30;99.90
15789;DHT22;59075;50.670;6.474;2022-09-01T13:28:44;24.20;99.90
15789;DHT22;59075;50.670;6.474;2022-09-01T13:31:11;24.30;99.90
15789;DHT22;59075;50.670;6.474;2022-09-01T13:33:38;24.30;99.90
15789;DHT22;59075;50.670;6.474;2022-09-01T13:36:05;24.30;99.90
15789;DHT22;59075;50.670;6.474;2022-09-01T13:38:32;24.30;99.90
15789;DHT22;59075;50.670;6.474;2022-09-01T13:40:59;24.30;99.90
15789;DHT22;59075;50.670;6.474;2022-09-01T13:43:26;24.30;99.90
15789;DHT22;59075;50.670;6.474;2022-09-01T13:45:55;24.30;99.90
15789;DHT22;59075;50.670;6.474;2022-09-01T13:48:22;24.30;99.90
15789;DHT22;59075;50.670;6.474;2022-09-01T13:50:50;24.30;99.90
15789;DHT22;59075;50.670;6.474;2022-09-01T13:53:18;24.30;99.90
15789;DHT22;59075;50.670;6.474;2022-09-01T13:55:45;24.30;99.90
15789;DHT22;59075;50.670;6.474;2022-09-01T13:58:13;24.30;99.90
15789;DHT22;59075;50.670;6.474;2022-09-01T14:00:42;24.30;99.90
15789;DHT22;59075;50.670;6.474;2022-09-01T14:03:12;24.30;99.90
15789;DHT22;59075;50.670;6.474;2022-09-01T14:05:43;24.30;99.90
15789;DHT22;59075;50.670;6.474;2022-09-01T14:08:11;24.30;99.90
15789;DHT22;59075;50.670;6.474;2022-09-01T14:10:40;24.30;99.90
15789;DHT22;59075;50.670;6.474;2022-09-01T14:13:07;24.30;99.90
15789;DHT22;59075;50.670;6.474;2022-09-01T14:15:34;24.30;99.90
15789;DHT22;59075;50.670;6.474;2022-09-01T14:18:01;24.30;99.90
15789;DHT22;59075;50.670;6.474;2022-09-01T14:20:32;24.30;99.90
15789;DHT22;59075;50.670;6.474;2022-09-01T14:23:00;24.30;99.90
15789;DHT22;59075;50.670;6.474;2022-09-01T14:25:27;24.30;99.90
15789;DHT22;59075;50.670;6.474;2022-09-01T14:27:53;24.30;99.90
15789;DHT22;59075;50.670;6.474;2022-09-01T14:30:23;24.30;99.90
15789;DHT22;59075;50.670;6.474;2022-09-01T14:32:51;24.30;99.90
15789;DHT22;59075;50.670;6.474;2022-09-01T14:35:19;24.30;99.90
15789;DHT22;59075;50.670;6.474;2022-09-01T14:37:48;24.30;99.90
15789;DHT22;59075;50.670;6.474;2022-09-01T14:40:16;24.30;99.90
15789;DHT22;59075;50.670;6.474;2022-09-01T14:42:46;24.30;99.90
15789;DHT22;59075;50.670;6.474;2022-09-01T14:45:14;24.30;99.90
15789;DHT22;59075;50.670;6.474;2022-09-01T14:47:42;24.30;99.90
15789;DHT22;59075;50.670;6.474;2022-09-01T14:50:10;24.30;99.90
15789;DHT22;59075;50.670;6.474;2022-09-01T14:52:37;24.30;99.90
15789;DHT22;59075;50.670;6.474;2022-09-01T14:55:05;24.30;99.90
15789;DHT22;59075;50.670;6.474;2022-09-01T14:57:32;24.30;99.90
15789;DHT22;59075;50.670;6.474;2022-09-01T14:59:59;24.30;99.90
15789;DHT22;59075;50.670;6.474;2022-09-01T15:02:26;24.30;99.90
15789;DHT22;59075;50.670;6.474;2022-09-01T15:04:54;24.30;99.90
15789;DHT22;59075;50.670;6.474;2022-09-01T15:07:20;24.30;99.90
15789;DHT22;59075;50.670;6.474;2022-09-01T15:09:47;24.30;99.90
15789;DHT22;59075;50.670;6.474;2022-09-01T15:12:15;24.30;99.90
15789;DHT22;59075;50.670;6.474;2022-09-01T15:17:09;24.30;99.90
15789;DHT22;59075;50.670;6.474;2022-09-01T15:19:36;24.30;99.90
15789;DHT22;59075;50.670;6.474;2022-09-01T15:22:02;24.30;99.90
15789;DHT22;59075;50.670;6.474;2022-09-01T15:24:32;24.30;99.90
15789;DHT22;59075;50.670;6.474;2022-09-01T15:26:59;24.30;99.90
15789;DHT22;59075;50.670;6.474;2022-09-01T15:29:27;24.30;99.90
15789;DHT22;59075;50.670;6.474;2022-09-01T15:31:59;24.30;99.90
15789;DHT22;59075;50.670;6.474;2022-09-01T15:34:26;24.30;99.90
15789;DHT22;59075;50.670;6.474;2022-09-01T15:36:52;24.30;99.90
15789;DHT22;59075;50.670;6.474;2022-09-01T15:39:19;24.30;99.90
15789;DHT22;59075;50.670;6.474;2022-09-01T15:41:46;24.30;99.90
15789;DHT22;59075;50.670;6.474;2022-09-01T15:44:12;24.30;99.90
15789;DHT22;59075;50.670;6.474;2022-09-01T15:46:41;24.30;99.90
15789;DHT22;59075;50.670;6.474;2022-09-01T15:49:09;24.30;99.90
15789;DHT22;59075;50.670;6.474;2022-09-01T15:51:37;24.30;99.90
15789;DHT22;59075;50.670;6.474;2022-09-01T15:54:06;24.30;99.90
15789;DHT22;59075;50.670;6.474;2022-09-01T15:56:34;24.30;99.90
15789;DHT22;59075;50.670;6.474;2022-09-01T16:01:29;24.30;99.90
15789;DHT22;59075;50.670;6.474;2022-09-01T16:03:58;24.30;99.90
15789;DHT22;59075;50.670;6.474;2022-09-01T16:08:52;24.30;99.90
15789;DHT22;59075;50.670;6.474;2022-09-01T16:11:20;24.30;99.90
15789;DHT22;59075;50.670;6.474;2022-09-01T16:13:47;24.30;99.90
15789;DHT22;59075;50.670;6.474;2022-09-01T16:16:35;24.30;99.90
15789;DHT22;59075;50.670;6.474;2022-09-01T16:19:17;24.30;99.90
15789;DHT22;59075;50.670;6.474;2022-09-01T16:21:51;24.20;99.90
15789;DHT22;59075;50.670;6.474;2022-09-01T16:24:18;24.20;99.90
15789;DHT22;59075;50.670;6.474;2022-09-01T16:26:47;24.20;99.90
15789;DHT22;59075;50.670;6.474;2022-09-01T16:29:20;24.20;99.90
15789;DHT22;59075;50.670;6.474;2022-09-01T16:31:54;24.20;99.90
15789;DHT22;59075;50.670;6.474;2022-09-01T16:34:22;24.20;99.90
15789;DHT22;59075;50.670;6.474;2022-09-01T16:36:59;24.20;99.90
15789;DHT22;59075;50.670;6.474;2022-09-01T16:39:36;24.20;99.90
15789;DHT22;59075;50.670;6.474;2022-09-01T16:42:12;24.20;99.90
15789;DHT22;59075;50.670;6.474;2022-09-01T16:44:53;24.20;99.90
15789;DHT22;59075;50.670;6.474;2022-09-01T16:47:39;24.20;99.90
15789;DHT22;59075;50.670;6.474;2022-09-01T16:50:15;24.20;99.90
15789;DHT22;59075;50.670;6.474;2022-09-01T16:53:13;24.20;99.90
15789;DHT22;59075;50.670;6.474;2022-09-01T16:55:57;24.20;99.90
15789;DHT22;59075;50.670;6.474;2022-09-01T16:58:28;24.20;99.90
15789;DHT22;59075;50.670;6.474;2022-09-01T17:01:05;24.20;99.90
15789;DHT22;59075;50.670;6.474;2022-09-01T17:03:42;24.20;99.90
15789;DHT22;59075;50.670;6.474;2022-09-01T17:06:19;24.20;99.90
15789;DHT22;59075;50.670;6.474;2022-09-01T17:08:50;24.20;99.90
15789;DHT22;59075;50.670;6.474;2022-09-01T17:11:23;24.20;99.90
15789;DHT22;59075;50.670;6.474;2022-09-01T17:13:52;24.20;99.90
15789;DHT22;59075;50.670;6.474;2022-09-01T17:16:22;24.20;99.90
15789;DHT22;59075;50.670;6.474;2022-09-01T17:21:25;24.10;99.90
15789;DHT22;59075;50.670;6.474;2022-09-01T17:23:59;24.20;99.90
15789;DHT22;59075;50.670;6.474;2022-09-01T17:26:30;24.20;99.90
15789;DHT22;59075;50.670;6.474;2022-09-01T17:29:00;24.20;99.90
15789;DHT22;59075;50.670;6.474;2022-09-01T17:31:43;24.20;99.90
15789;DHT22;59075;50.670;6.474;2022-09-01T17:34:21;24.20;99.90
15789;DHT22;59075;50.670;6.474;2022-09-01T17:36:59;24.10;99.90
15789;DHT22;59075;50.670;6.474;2022-09-01T17:39:36;24.10;99.90
15789;DHT22;59075;50.670;6.474;2022-09-01T17:42:14;24.10;99.90
15789;DHT22;59075;50.670;6.474;2022-09-01T17:44:51;24.10;99.90
15789;DHT22;59075;50.670;6.474;2022-09-01T17:47:29;24.10;99.90
15789;DHT22;59075;50.670;6.474;2022-09-01T17:50:05;24.10;99.90
15789;DHT22;59075;50.670;6.474;2022-09-01T17:52:45;24.10;99.90
15789;DHT22;59075;50.670;6.474;2022-09-01T17:55:24;24.10;99.90
15789;DHT22;59075;50.670;6.474;2022-09-01T17:57:57;24.10;99.90
15789;DHT22;59075;50.670;6.474;2022-09-01T18:00:33;24.10;99.90
15789;DHT22;59075;50.670;6.474;2022-09-01T18:03:18;24.10;99.90
15789;DHT22;59075;50.670;6.474;2022-09-01T18:05:54;24.10;99.90
15789;DHT22;59075;50.670;6.474;2022-09-01T18:08:30;24.10;99.90
15789;DHT22;59075;50.670;6.474;2022-09-01T18:11:06;24.10;99.90
15789;DHT22;59075;50.670;6.474;2022-09-01T18:13:37;24.10;99.90
15789;DHT22;59075;50.670;6.474;2022-09-01T18:16:10;24.10;99.90
15789;DHT22;59075;50.670;6.474;2022-09-01T18:18:39;24.10;99.90
15789;DHT22;59075;50.670;6.474;2022-09-01T18:21:09;24.10;99.90
15789;DHT22;59075;50.670;6.474;2022-09-01T18:23:40;24.10;99.90
15789;DHT22;59075;50.670;6.474;2022-09-01T18:26:16;24.10;99.90
15789;DHT22;59075;50.670;6.474;2022-09-01T18:28:44;24.10;99.90
15789;DHT22;59075;50.670;6.474;2022-09-01T18:31:21;24.00;99.90
15789;DHT22;59075;50.670;6.474;2022-09-01T18:34:00;24.10;99.90
15789;DHT22;59075;50.670;6.474;2022-09-01T18:36:35;24.10;99.90
15789;DHT22;59075;50.670;6.474;2022-09-01T18:39:11;24.00;99.90
15789;DHT22;59075;50.670;6.474;2022-09-01T18:41:49;24.00;99.90
15789;DHT22;59075;50.670;6.474;2022-09-01T18:44:27;24.00;99.90
15789;DHT22;59075;50.670;6.474;2022-09-01T18:47:02;24.00;99.90
15789;DHT22;59075;50.670;6.474;2022-09-01T18:49:36;24.00;99.90
15789;DHT22;59075;50.670;6.474;2022-09-01T18:52:13;24.00;99.90
15789;DHT22;59075;50.670;6.474;2022-09-01T18:54:47;24.00;99.90
15789;DHT22;59075;50.670;6.474;2022-09-01T18:57:17;24.00;99.90
15789;DHT22;59075;50.670;6.474;2022-09-01T18:59:58;24.00;99.90
15789;DHT22;59075;50.670;6.474;2022-09-01T19:02:50;24.00;99.90
15789;DHT22;59075;50.670;6.474;2022-09-01T19:05:25;24.10;99.90
15789;DHT22;59075;50.670;6.474;2022-09-01T19:08:00;24.00;99.90
15789;DHT22;59075;50.670;6.474;2022-09-01T19:10:35;24.00;99.90
15789;DHT22;59075;50.670;6.474;2022-09-01T19:13:07;24.00;99.90
15789;DHT22;59075;50.670;6.474;2022-09-01T19:15:40;24.00;99.90
15789;DHT22;59075;50.670;6.474;2022-09-01T19:18:15;24.00;99.90
15789;DHT22;59075;50.670;6.474;2022-09-01T19:20:49;24.00;99.90
15789;DHT22;59075;50.670;6.474;2022-09-01T19:23:20;24.00;99.90
15789;DHT22;59075;50.670;6.474;2022-09-01T19:25:56;24.00;99.90
15789;DHT22;59075;50.670;6.474;2022-09-01T19:28:32;24.00;99.90
15789;DHT22;59075;50.670;6.474;2022-09-01T19:31:09;24.00;99.90
15789;DHT22;59075;50.670;6.474;2022-09-01T19:33:41;24.00;99.90
15789;DHT22;59075;50.670;6.474;2022-09-01T19:36:11;24.00;99.90
15789;DHT22;59075;50.670;6.474;2022-09-01T19:38:41;24.00;99.90
15789;DHT22;59075;50.670;6.474;2022-09-01T19:41:18;24.00;99.90
15789;DHT22;59075;50.670;6.474;2022-09-01T19:43:50;24.00;99.90
15789;DHT22;59075;50.670;6.474;2022-09-01T19:46:24;23.90;99.90
15789;DHT22;59075;50.670;6.474;2022-09-01T19:48:57;23.90;99.90
15789;DHT22;59075;50.670;6.474;2022-09-01T19:51:31;24.00;99.90
15789;DHT22;59075;50.670;6.474;2022-09-01T19:54:05;24.00;99.90
15789;DHT22;59075;50.670;6.474;2022-09-01T19:56:39;23.90;99.90
15789;DHT22;59075;50.670;6.474;2022-09-01T19:59:13;23.90;99.90
15789;DHT22;59075;50.670;6.474;2022-09-01T20:01:46;24.00;99.90
15789;DHT22;59075;50.670;6.474;2022-09-01T20:04:21;23.90;99.90
15789;DHT22;59075;50.670;6.474;2022-09-01T20:06:54;23.90;99.90
15789;DHT22;59075;50.670;6.474;2022-09-01T20:09:27;23.90;99.90
15789;DHT22;59075;50.670;6.474;2022-09-01T20:12:09;23.90;99.90
15789;DHT22;59075;50.670;6.474;2022-09-01T20:15:02;23.90;99.90
15789;DHT22;59075;50.670;6.474;2022-09-01T20:17:36;23.90;99.90
15789;DHT22;59075;50.670;6.474;2022-09-01T20:20:07;23.90;99.90
15789;DHT22;59075;50.670;6.474;2022-09-01T20:22:42;23.90;99.90
15789;DHT22;59075;50.670;6.474;2022-09-01T20:25:12;23.90;99.90
15789;DHT22;59075;50.670;6.474;2022-09-01T20:27:50;23.90;99.90
15789;DHT22;59075;50.670;6.474;2022-09-01T20:30:20;23.90;99.90
15789;DHT22;59075;50.670;6.474;2022-09-01T20:32:52;23.90;99.90
15789;DHT22;59075;50.670;6.474;2022-09-01T20:37:55;23.90;99.90
15789;DHT22;59075;50.670;6.474;2022-09-01T20:40:25;23.90;99.90
15789;DHT22;59075;50.670;6.474;2022-09-01T20:43:06;23.90;99.90
15789;DHT22;59075;50.670;6.474;2022-09-01T20:45:34;23.90;99.90
15789;DHT22;59075;50.670;6.474;2022-09-01T20:48:03;23.90;99.90
15789;DHT22;59075;50.670;6.474;2022-09-01T20:50:36;23.90;99.90
15789;DHT22;59075;50.670;6.474;2022-09-01T20:53:12;23.90;99.90
15789;DHT22;59075;50.670;6.474;2022-09-01T20:55:48;23.90;99.90
15789;DHT22;59075;50.670;6.474;2022-09-01T20:58:33;23.90;99.90
